Latest Weather Observations for Blackall

IDQ60801

Issued at 9:35 am EST Sunday 21 September 2014 (issued every 30 minutes, with the page automatically refreshed every 10 minutes)

About weather observations | Map of weather stations | Latest weather observations for QLD | Other Formats
Station Details ID: 036034 Name: BLACKALL AIRPORT Lat: -24.43 Lon: 145.43 Height: 281.3 m
Data from the previous 72 hours. | See also: Recent months at Blackall
Date/Time
EST
Temp
°C
App
Temp
°C
Dew
Point
Rel
Hum
%
Delta-T
°C
Wind Press
QNH
hPa
Press
MSL
hPa
Rain
since 9 am
mm
Dir
 
Spd
km/h
Gust
km/h
Spd
kts
Gust
kts
21/09:30am 19.1 17.1 10.1 56 4.9 NE 11 15 6 8 1021.1 1020.1 0.0
21/09:00am 18.7 15.4 9.5 55 4.9 NE 17 24 9 13 1021.3 1020.3 0.0
21/08:30am 18.9 16.0 8.3 50 5.5 NNE 13 17 7 9 1021.1 1020.1 0.0
21/08:00am 18.7 14.9 3.7 37 7.1 NNE 13 17 7 9 1021.3 1020.3 0.0
21/07:30am 18.3 14.0 1.3 32 7.7 NE 13 20 7 11 1020.4 1019.4 0.0
21/07:00am 18.0 15.2 -0.3 29 8.0 ENE 4 9 2 5 1019.8 1018.8 0.0
21/06:30am 17.5 14.9 -1.7 27 8.1 ENE 2 7 1 4 1019.7 1018.7 0.0
21/06:00am 17.9 14.3 -2.4 25 8.5 NE 7 11 4 6 1019.1 1018.1 0.0
21/05:30am 18.1 14.6 -2.8 24 8.7 NNE 6 9 3 5 1019.2 1018.2 0.0
21/05:00am 18.9 14.1 -2.7 23 9.1 ENE 13 20 7 11 1019.0 1018.0 0.0
21/04:30am 19.4 14.0 -1.7 24 9.1 E 17 20 9 11 1018.4 1017.3 0.0
21/04:00am 19.8 12.2 -2.5 22 9.5 E 28 37 15 20 1018.3 1017.2 0.0
21/03:30am 19.3 12.0 -2.9 22 9.3 E 26 33 14 18 1018.1 1017.0 0.0
21/03:18am 18.9 12.1 -2.1 24 8.9 E 24 33 13 18 1017.6 1016.6 0.0
21/03:00am 19.8 14.4 -4.5 19 9.9 SE 15 19 8 10 1019.9 1018.9 0.0
21/02:30am 20.2 11.5 -4.8 18 10.2 SE 32 43 17 23 1019.3 1018.3 0.0
21/02:28am 20.0 11.3 -5.0 18 10.1 SE 32 39 17 21 1019.5 1018.5 0.0
21/02:00am 20.0 14.2 -5.0 18 10.1 S 17 20 9 11 1020.5 1019.5 0.0
21/01:30am 20.2 15.5 -4.8 18 10.2 SSW 11 17 6 9 1020.1 1019.1 0.0
21/01:00am 20.4 15.7 -4.7 18 10.3 SSE 11 15 6 8 1019.3 1018.3 0.0
21/12:30am 20.6 15.6 -4.5 18 10.3 SSE 13 17 7 9 1019.4 1018.4 0.0
21/12:00am 20.8 15.0 -4.4 18 10.4 SE 17 24 9 13 1019.7 1018.7 0.0
 
Date/Time
EST
Temp
°C
App
Temp
°C
Dew
Point
Rel
Hum
%
Delta-T
°C
Wind Press
QNH
hPa
Press
MSL
hPa
Rain
since 9 am
mm
Dir
 
Spd
km/h
Gust
km/h
Spd
kts
Gust
kts
20/11:30pm 21.2 14.9 -4.0 18 10.5 SE 20 28 11 15 1019.6 1018.6 0.0
20/11:00pm 21.2 14.2 -3.3 19 10.4 SE 24 41 13 22 1019.5 1018.5 0.0
20/10:30pm 21.6 14.4 -2.3 20 10.4 ESE 26 37 14 20 1019.2 1018.2 0.0
20/10:00pm 22.1 16.0 -2.6 19 10.7 SSE 20 30 11 16 1020.9 1019.9 0.0
20/09:30pm 22.3 16.1 -3.1 18 10.9 SSE 20 30 11 16 1020.7 1019.7 0.0
20/09:00pm 22.4 16.1 -3.8 17 11.1 SSE 20 32 11 17 1020.1 1019.1 0.0
20/08:30pm 22.8 16.5 -4.3 16 11.4 SSE 20 28 11 15 1019.7 1018.7 0.0
20/08:00pm 23.0 16.8 -5.0 15 11.7 S 19 28 10 15 1020.1 1019.1 0.0
20/07:30pm 23.3 17.1 -4.8 15 11.8 S 19 30 10 16 1019.0 1018.0 0.0
20/07:00pm 23.8 17.6 -4.4 15 12.0 S 19 28 10 15 1018.9 1017.9 0.0
20/06:30pm 24.3 18.8 -5.8 13 12.5 S 15 22 8 12 1018.3 1017.2 0.0
20/06:00pm 24.9 18.9 -6.4 12 12.9 S 17 24 9 13 1017.6 1016.6 0.0
20/05:30pm 25.6 19.7 -5.9 12 13.2 S 17 26 9 14 1017.1 1016.1 0.0
20/05:00pm 25.9 19.2 -8.0 10 13.7 SSW 20 28 11 15 1016.7 1015.7 0.0
20/04:30pm 27.0 20.6 -7.2 10 14.2 SSW 19 24 10 13 1016.2 1015.2 0.0
20/04:00pm 27.3 21.3 -6.9 10 14.3 S 17 30 9 16 1015.8 1014.8 0.0
20/03:30pm 27.4 20.4 -6.9 10 14.4 SSW 22 32 12 17 1015.9 1014.9 0.0
20/03:00pm 27.3 21.7 -6.9 10 14.3 S 15 24 8 13 1015.9 1014.9 0.0
20/02:30pm 28.2 21.9 -6.3 10 14.7 S 19 28 10 15 1016.1 1015.1 0.0
20/02:00pm 27.2 21.2 -7.0 10 14.3 SW 17 22 9 12 1016.3 1015.3 0.0
20/01:30pm 26.7 20.2 -7.4 10 14.1 SE 19 26 10 14 1016.9 1015.9 0.0
20/01:00pm 26.7 21.5 -6.2 11 13.9 SE 13 19 7 10 1017.2 1016.2 0.0
20/12:30pm 26.4 21.2 -6.4 11 13.8 S 13 20 7 11 1018.0 1016.9 0.0
20/12:00pm 25.6 20.9 -4.8 13 13.0 SSE 11 33 6 18 1018.6 1017.5 0.0
20/11:30am 24.7 20.0 -4.6 14 12.5 ESE 11 17 6 9 1019.4 1018.4 0.0
20/11:00am 25.0 19.3 -3.4 15 12.4 ESE 17 24 9 13 1019.7 1018.7 0.0
20/10:30am 24.2 18.6 -3.2 16 12.0 ESE 17 24 9 13 1020.0 1019.0 0.0
20/10:00am 22.7 16.7 -2.8 18 11.0 SE 19 28 10 15 1020.3 1019.3 0.0
20/09:30am 21.4 14.8 -3.1 19 10.5 ESE 22 30 12 16 1020.7 1019.7 0.0
20/09:00am 20.4 13.5 -2.6 21 9.8 ESE 24 32 13 17 1020.9 1019.9 0.0
20/08:30am 19.8 13.0 -1.9 23 9.3 SE 24 35 13 19 1020.8 1019.8 0.0
20/08:00am 17.8 11.7 -2.5 25 8.5 SE 20 28 11 15 1020.6 1019.6 0.0
20/07:30am 14.5 8.5 -2.8 30 6.9 SSE 19 24 10 13 1020.3 1019.3 0.0
20/07:00am 13.7 8.1 -2.7 32 6.5 SSE 17 22 9 12 1020.0 1019.0 0.0
20/06:30am 12.4 7.5 -3.0 34 6.0 S 13 20 7 11 1019.8 1018.8 0.0
20/06:00am 12.4 7.6 -2.6 35 5.9 S 13 17 7 9 1019.5 1018.5 0.0
20/05:30am 11.9 7.0 -3.1 35 5.8 S 13 15 7 8 1019.2 1018.2 0.0
20/05:00am 11.9 7.4 -3.1 35 5.8 S 11 13 6 7 1018.9 1017.9 0.0
20/04:30am 11.8 7.3 -3.5 34 5.9 S 11 15 6 8 1018.7 1017.6 0.0
20/04:00am 11.9 7.4 -3.4 34 5.9 S 11 17 6 9 1018.5 1017.4 0.0
20/03:30am 12.3 8.1 -3.9 32 6.2 S 9 13 5 7 1018.3 1017.2 0.0
20/03:00am 13.0 8.8 -3.7 31 6.5 S 9 11 5 6 1018.4 1017.3 0.0
20/02:30am 13.9 9.7 -3.8 29 6.9 S 9 13 5 7 1018.6 1017.5 0.0
20/02:00am 14.6 10.0 -4.2 27 7.3 S 11 15 6 8 1019.0 1018.0 0.0
20/01:30am 15.7 10.8 -3.7 26 7.7 S 13 17 7 9 1019.2 1018.2 0.0
20/01:00am 16.2 11.3 -3.8 25 8.0 S 13 19 7 10 1019.4 1018.4 0.0
20/12:30am 16.8 11.8 -3.9 24 8.3 S 13 17 7 9 1019.5 1018.5 0.0
20/12:00am 17.7 12.7 -4.3 22 8.8 S 13 17 7 9 1019.7 1018.7 0.0
 
Date/Time
EST
Temp
°C
App
Temp
°C
Dew
Point
Rel
Hum
%
Delta-T
°C
Wind Press
QNH
hPa
Press
MSL
hPa
Rain
since 9 am
mm
Dir
 
Spd
km/h
Gust
km/h
Spd
kts
Gust
kts
19/11:30pm 18.0 13.0 -4.6 21 9.1 S 13 17 7 9 1019.9 1018.9 0.0
19/11:00pm 19.0 13.6 -4.4 20 9.5 S 15 20 8 11 1019.7 1018.7 0.0
19/10:30pm 19.5 14.1 -4.7 19 9.8 S 15 20 8 11 1019.6 1018.6 0.0
19/10:00pm 19.8 14.3 -5.2 18 10.0 S 15 19 8 10 1019.4 1018.4 0.0
19/09:30pm 20.2 14.7 -5.6 17 10.4 S 15 20 8 11 1019.2 1018.2 0.0
19/09:00pm 20.9 15.4 -5.8 16 10.7 SSW 15 22 8 12 1018.9 1017.9 0.0
19/08:30pm 21.2 16.0 -6.4 15 11.0 S 13 17 7 9 1018.6 1017.5 0.0
19/08:00pm 21.7 16.4 -6.9 14 11.3 SSW 13 19 7 10 1018.0 1016.9 0.0
19/07:30pm 22.8 17.4 -8.1 12 12.1 SSW 13 17 7 9 1017.5 1016.5 0.0
19/07:00pm 24.3 18.2 -8.0 11 12.9 SSW 17 22 9 12 1016.9 1015.9 0.0
19/06:30pm 25.4 19.2 -8.4 10 13.5 SSW 17 20 9 11 1016.4 1015.4 0.0
19/06:00pm 26.8 20.6 -8.7 9 14.3 SW 17 26 9 14 1016.0 1015.0 0.0
19/05:30pm 28.1 20.9 -9.2 8 15.1 SW 22 32 12 17 1015.7 1014.7 0.0
19/05:00pm 28.8 20.5 -8.7 8 15.4 SSW 28 41 15 22 1015.5 1014.4 0.0
19/04:30pm 29.8 23.3 -8.0 8 15.9 SW 19 28 10 15 1015.3 1014.2 0.0
19/04:00pm 29.4 23.8 -6.7 9 15.5 SSW 15 20 8 11 1015.2 1014.1 0.0
19/03:30pm 29.7 23.3 -6.5 9 15.6 W 19 30 10 16 1015.2 1014.1 0.0
19/03:00pm 28.8 22.2 -7.2 9 15.2 SSW 20 35 11 19 1015.4 1014.3 0.0
19/02:30pm 29.4 23.4 -6.7 9 15.5 WSW 17 32 9 17 1015.7 1014.7 0.0
19/02:00pm 29.4 23.0 -6.7 9 15.5 WSW 19 30 10 16 1016.3 1015.3 0.0
19/01:30pm 28.6 22.5 -7.3 9 15.1 W 17 30 9 16 1016.7 1015.7 0.0
19/01:00pm 28.7 23.0 -7.3 9 15.1 W 15 28 8 15 1017.4 1016.4 0.0
19/12:30pm 27.7 22.3 -8.0 9 14.7 W 13 22 7 12 1018.0 1016.9 0.0
19/12:00pm 28.5 23.7 -6.0 10 14.8 N 11 17 6 9 1018.5 1017.4 0.0
19/11:30am 26.8 22.9 -4.9 12 13.7 WNW 7 17 4 9 1019.2 1018.2 0.0
19/11:00am 26.8 22.5 -4.9 12 13.7 NNW 9 19 5 10 1019.7 1018.7 0.0
19/10:30am 25.7 21.1 -1.2 17 12.3 NNW 13 22 7 12 1020.2 1019.2 0.0
19/10:00am 24.1 20.2 -1.7 18 11.5 N 9 13 5 7 1020.6 1019.6 0.0
19/09:30am 22.8 19.2 -2.0 19 10.9 NE 7 11 4 6 1020.8 1019.8 0.0
19/09:00am 21.0 17.0 -2.1 21 10.0 ENE 9 15 5 8 1020.9 1019.9 0.0
19/08:30am 18.9 14.9 -2.1 24 8.9 SE 9 11 5 6 1020.7 1019.7 0.0
19/08:00am 16.3 11.9 -2.2 28 7.6 ESE 11 15 6 8 1020.5 1019.5 0.0
19/07:30am 14.0 8.9 -2.0 33 6.5 ESE 15 20 8 11 1020.0 1019.0 0.0
19/07:00am 11.3 7.6 -2.5 38 5.4 ESE 7 9 4 5 1019.9 1018.9 0.0
19/06:30am 8.9 4.8 -2.7 44 4.4 SE 9 11 5 6 1019.6 1018.6 0.0
19/06:00am 8.4 4.0 -2.2 47 4.0 ESE 11 13 6 7 1019.6 1018.6 0.0
19/05:30am 6.5 2.5 -2.6 52 3.4 SSE 9 11 5 6 1019.8 1018.8 0.0
19/05:00am 7.4 4.6 -2.9 48 3.8 SE 2 7 1 4 1019.5 1018.5 0.0
19/04:30am 8.5 5.4 -2.7 45 4.2 SE 4 6 2 3 1019.4 1018.4 0.0
19/04:00am 9.5 5.4 -2.8 42 4.7 S 9 11 5 6 1019.1 1018.1 0.0
19/03:30am 8.7 4.7 -2.6 45 4.3 S 9 11 5 6 1019.0 1018.0 0.0
19/03:00am 8.8 5.0 -3.4 42 4.5 SSE 7 7 4 4 1019.0 1018.0 0.0
19/02:30am 10.4 6.6 -3.6 37 5.3 SSE 7 9 4 5 1019.0 1018.0 0.0
19/02:00am 11.9 7.8 -3.4 34 5.9 S 9 9 5 5 1019.4 1018.4 0.0
19/01:30am 12.5 8.3 -3.7 32 6.2 SSE 9 11 5 6 1019.4 1018.4 0.0
19/01:00am 13.3 9.1 -3.9 30 6.6 SSE 9 11 5 6 1019.5 1018.5 0.0
19/12:30am 13.8 9.2 -3.9 29 6.9 SSE 11 13 6 7 1019.8 1018.8 0.0
19/12:00am 14.4 9.8 -3.9 28 7.1 SSE 11 13 6 7 1019.9 1018.9 0.0
 
Date/Time
EST
Temp
°C
App
Temp
°C
Dew
Point
Rel
Hum
%
Delta-T
°C
Wind Press
QNH
hPa
Press
MSL
hPa
Rain
since 9 am
mm
Dir
 
Spd
km/h
Gust
km/h
Spd
kts
Gust
kts
18/11:30pm 14.6 10.0 -4.2 27 7.3 S 11 13 6 7 1019.8 1018.8 0.0
18/11:00pm 15.4 11.2 -4.0 26 7.6 SE 9 11 5 6 1019.8 1018.8 0.0
18/10:30pm 16.7 12.1 -3.9 24 8.3 SSE 11 13 6 7 1019.9 1018.9 0.0
18/10:00pm 17.4 12.8 -3.9 23 8.6 SSE 11 13 6 7 1020.0 1019.0 0.0
18/09:30pm 18.0 13.4 -4.0 22 8.9 SSE 11 15 6 8 1020.0 1019.0 0.0
18/09:00pm 18.5 14.3 -4.2 21 9.2 S 9 11 5 6 1019.7 1018.7 0.0
18/08:30pm 19.5 15.3 -4.0 20 9.7 SSE 9 13 5 7 1019.5 1018.5 0.0
18/08:00pm 20.3 15.7 -4.0 19 10.1 S 11 15 6 8 1019.2 1018.2 0.0
18/07:30pm 20.6 16.0 -4.5 18 10.3 S 11 13 6 7 1018.9 1017.9 0.0
18/07:00pm 21.7 17.1 -4.4 17 10.9 S 11 13 6 7 1018.5 1017.4 0.0
18/06:30pm 22.8 18.1 -5.2 15 11.6 S 11 15 6 8 1018.1 1017.0 0.0
18/06:00pm 24.8 19.3 -5.5 13 12.7 S 15 19 8 10 1017.7 1016.7 0.0
18/05:30pm 26.0 20.8 -6.7 11 13.6 S 13 19 7 10 1017.4 1016.4 0.0
18/05:00pm 26.1 20.4 -7.9 10 13.8 SSE 15 22 8 12 1017.1 1016.1 0.0
18/04:30pm 26.6 20.5 -7.5 10 14.0 SE 17 28 9 15 1017.0 1016.0 0.0
18/04:00pm 26.6 20.9 -7.5 10 14.0 S 15 24 8 13 1016.9 1015.9 0.0
18/03:30pm 27.2 22.8 -5.8 11 14.1 S 9 19 5 10 1017.0 1016.0 0.0
18/03:00pm 26.8 21.6 -6.1 11 13.9 E 13 20 7 11 1017.2 1016.2 0.0
18/02:30pm 27.1 22.7 -5.9 11 14.1 E 9 28 5 15 1017.5 1016.5 0.0
18/02:00pm 26.0 20.8 -6.7 11 13.6 S 13 30 7 16 1017.9 1016.8 0.0
18/01:30pm 25.4 21.4 -6.0 12 13.1 SE 7 13 4 7 1018.7 1017.6 0.0
18/01:00pm 25.1 19.3 -4.2 14 12.6 SE 17 28 9 15 1019.3 1018.3 0.0
18/12:30pm 24.9 20.0 -3.5 15 12.4 E 13 20 7 11 1019.8 1018.8 0.0
18/12:00pm 24.2 17.9 -4.0 15 12.1 SE 20 32 11 17 1020.4 1019.4 0.0
18/11:30am 23.9 17.8 -2.6 17 11.7 ESE 20 30 11 16 1021.0 1020.0 0.0
18/11:00am 22.9 18.1 -2.6 18 11.1 SE 13 20 7 11 1021.5 1020.5 0.0
18/10:30am 22.5 16.7 -1.6 20 10.7 SSE 19 30 10 16 1021.9 1020.9 0.0
18/10:00am 22.7 18.3 0.5 23 10.2 ESE 13 19 7 10 1022.3 1021.3 0.0

Other Formats:

Comma delimited format used in spreadsheet applications
http://www.bom.gov.au/fwo/IDQ60801/IDQ60801.95351.axf

JavaScript Object Notation format (JSON) in row-major order
http://www.bom.gov.au/fwo/IDQ60801/IDQ60801.95351.json